createdAt,value
2022-12-18T00:02:01.861Z,19.17
2022-12-18T00:04:29.082Z,18.02
2022-12-18T00:06:55.399Z,18.15
2022-12-18T00:09:21.931Z,18.88
2022-12-18T00:11:50.885Z,20.15
2022-12-18T00:14:17.137Z,21.80
2022-12-18T00:16:47.359Z,21.27
2022-12-18T00:19:14.522Z,21.70
2022-12-18T00:21:40.865Z,20.33
2022-12-18T00:24:07.400Z,21.40
2022-12-18T00:26:35.049Z,22.95
2022-12-18T00:29:05.905Z,22.10
2022-12-18T00:31:32.181Z,22.48
2022-12-18T00:34:00.824Z,25.02
2022-12-18T00:36:34.301Z,23.67
2022-12-18T00:39:02.148Z,24.52
2022-12-18T00:41:47.354Z,24.42
2022-12-18T00:44:15.633Z,24.52
2022-12-18T00:46:43.532Z,24.70
2022-12-18T00:49:09.665Z,25.02
2022-12-18T00:51:35.844Z,22.70
2022-12-18T00:54:02.079Z,24.13
2022-12-18T00:56:28.195Z,21.48
2022-12-18T00:58:54.383Z,20.40
2022-12-18T01:01:20.912Z,20.50
2022-12-18T01:03:47.728Z,19.23
2022-12-18T01:06:16.491Z,20.15
2022-12-18T01:08:43.184Z,19.67
2022-12-18T01:11:16.201Z,17.17
2022-12-18T01:13:42.464Z,17.90
2022-12-18T01:16:09.974Z,18.88
2022-12-18T01:18:36.750Z,19.42
2022-12-18T01:21:07.900Z,17.65
2022-12-18T01:23:37.280Z,18.13
2022-12-18T01:26:08.504Z,17.50
2022-12-18T01:28:35.318Z,18.02
2022-12-18T01:31:23.143Z,16.85
2022-12-18T01:33:49.455Z,15.23
2022-12-18T01:36:20.429Z,16.75
2022-12-18T01:38:47.504Z,16.83
2022-12-18T01:41:14.593Z,18.80
2022-12-18T01:43:45.013Z,17.35
2022-12-18T01:46:11.673Z,17.30
2022-12-18T01:48:39.847Z,16.90
2022-12-18T01:51:07.940Z,17.13
2022-12-18T01:53:34.417Z,15.93
2022-12-18T01:56:00.715Z,16.83
2022-12-18T01:58:49.598Z,17.85
2022-12-18T02:01:15.909Z,16.75
2022-12-18T02:03:43.940Z,15.70
2022-12-18T02:06:17.174Z,14.75
2022-12-18T02:08:49.456Z,16.13
2022-12-18T02:11:47.396Z,14.60
2022-12-18T02:14:40.038Z,14.35
2022-12-18T02:17:19.684Z,14.90
2022-12-18T02:20:16.989Z,14.45
2022-12-18T02:23:10.840Z,14.85
2022-12-18T02:25:56.033Z,14.43
2022-12-18T02:28:25.871Z,15.07
2022-12-18T02:30:57.313Z,15.80
2022-12-18T02:33:28.794Z,15.13
2022-12-18T02:35:58.523Z,15.27
2022-12-18T02:38:26.593Z,16.05
2022-12-18T02:40:55.014Z,17.95
2022-12-18T02:43:22.773Z,16.02
2022-12-18T02:45:53.105Z,15.60
2022-12-18T02:48:23.837Z,16.30
2022-12-18T02:51:18.321Z,16.50
2022-12-18T02:54:24.593Z,15.05
2022-12-18T02:56:58.756Z,15.43
2022-12-18T02:59:38.778Z,15.63
2022-12-18T03:02:27.532Z,13.52
2022-12-18T03:05:05.734Z,15.90
2022-12-18T03:07:46.325Z,16.67
2022-12-18T03:10:17.619Z,14.65
2022-12-18T03:12:52.380Z,16.27
2022-12-18T03:15:21.924Z,15.23
2022-12-18T03:18:10.064Z,15.85
2022-12-18T03:20:39.059Z,14.45
2022-12-18T03:23:19.015Z,16.38
2022-12-18T03:25:51.884Z,16.02
2022-12-18T03:28:22.729Z,15.90
2022-12-18T03:30:59.054Z,15.80
2022-12-18T03:33:41.133Z,16.17
2022-12-18T03:36:08.027Z,15.82
2022-12-18T03:38:34.307Z,17.98
2022-12-18T03:41:09.614Z,17.02
2022-12-18T03:44:00.840Z,16.92
2022-12-18T03:47:06.396Z,17.40
2022-12-18T03:49:37.604Z,16.23
2022-12-18T03:52:12.196Z,15.40
2022-12-18T03:54:42.776Z,17.63
2022-12-18T03:57:25.807Z,17.65
2022-12-18T03:59:58.355Z,16.75
2022-12-18T04:02:31.500Z,15.77
2022-12-18T04:05:04.541Z,17.50
2022-12-18T04:07:31.693Z,16.70
2022-12-18T04:10:00.910Z,16.30
2022-12-18T04:12:30.309Z,16.85
2022-12-18T04:14:56.712Z,17.13
2022-12-18T04:17:23.535Z,16.33
2022-12-18T04:19:49.750Z,16.23
2022-12-18T04:22:16.588Z,16.33
2022-12-18T04:24:47.067Z,15.82
2022-12-18T04:27:24.925Z,16.00
2022-12-18T04:29:51.256Z,14.88
2022-12-18T04:32:18.475Z,15.05
2022-12-18T04:34:44.928Z,15.68
2022-12-18T04:37:11.055Z,16.35
2022-12-18T04:39:37.536Z,15.55
2022-12-18T04:42:09.612Z,16.92
2022-12-18T04:44:35.845Z,15.95
2022-12-18T04:47:01.955Z,16.02
2022-12-18T04:49:28.153Z,16.58
2022-12-18T04:51:54.585Z,15.73
2022-12-18T04:54:21.444Z,18.60
2022-12-18T13:53:34.423Z,15.25
2022-12-18T13:56:00.629Z,14.75
2022-12-18T13:58:26.749Z,14.13
2022-12-18T14:00:53.490Z,15.30
2022-12-18T14:03:23.494Z,15.88
2022-12-18T14:06:00.996Z,15.98
2022-12-18T14:08:33.382Z,15.55
2022-12-18T14:10:59.667Z,14.57
2022-12-18T14:13:30.521Z,14.77
2022-12-18T14:15:59.173Z,14.57
2022-12-18T14:18:37.520Z,16.80
2022-12-18T14:21:05.139Z,15.82
2022-12-18T14:23:31.171Z,16.88
2022-12-18T14:26:02.088Z,17.27
2022-12-18T14:28:32.717Z,16.75
2022-12-18T14:30:58.970Z,16.95
2022-12-18T14:33:27.513Z,14.75
2022-12-18T14:36:06.895Z,15.30
2022-12-18T14:38:39.842Z,15.95
2022-12-18T14:41:07.645Z,14.65
2022-12-18T14:43:36.264Z,15.93
2022-12-18T14:46:04.586Z,18.02
2022-12-18T14:48:40.120Z,16.98
2022-12-18T14:51:17.750Z,18.88
2022-12-18T14:53:50.711Z,17.33
2022-12-18T14:56:26.788Z,16.50
2022-12-18T14:58:56.925Z,18.83
2022-12-18T15:01:29.241Z,17.30
2022-12-18T15:03:57.183Z,18.50
2022-12-18T15:06:31.562Z,18.80
2022-12-18T15:08:58.888Z,18.63
2022-12-18T15:11:41.454Z,16.77
2022-12-18T15:14:39.492Z,17.42
2022-12-18T15:17:20.964Z,16.27
2022-12-18T15:19:50.947Z,17.15
2022-12-18T15:22:19.731Z,16.33
2022-12-18T15:24:46.266Z,16.52
2022-12-18T15:27:23.795Z,17.25
2022-12-18T15:30:08.945Z,14.70
2022-12-18T15:32:37.281Z,15.90
2022-12-18T15:35:12.262Z,16.33
2022-12-18T15:37:38.865Z,16.15
2022-12-18T15:40:06.629Z,17.25
2022-12-18T15:42:51.241Z,16.55
2022-12-18T15:45:17.380Z,15.52
2022-12-18T15:47:45.477Z,18.10
2022-12-18T15:50:11.749Z,14.77
2022-12-18T15:52:43.127Z,17.13
2022-12-18T15:55:42.119Z,15.50
2022-12-18T15:58:09.836Z,16.08
2022-12-18T16:00:38.916Z,15.38
2022-12-18T16:03:06.227Z,18.10
2022-12-18T16:05:32.624Z,15.05
2022-12-18T16:07:59.330Z,15.10
2022-12-18T16:10:27.244Z,16.30
2022-12-18T16:12:53.507Z,15.52
2022-12-18T16:15:24.243Z,15.82
2022-12-18T16:17:50.895Z,15.95
2022-12-18T16:20:22.452Z,20.75
2022-12-18T16:22:49.615Z,15.38
2022-12-18T16:25:20.744Z,18.13
2022-12-18T16:27:47.040Z,16.52
2022-12-18T16:30:30.538Z,16.15
2022-12-18T16:33:04.504Z,16.55
2022-12-18T16:35:30.608Z,15.98
2022-12-18T16:37:56.722Z,15.63
2022-12-18T16:40:22.829Z,15.52
2022-12-18T16:42:48.951Z,15.70
2022-12-18T16:45:18.372Z,17.42
2022-12-18T16:47:45.502Z,15.45
2022-12-18T16:50:12.132Z,15.80
2022-12-18T16:52:38.699Z,18.52
2022-12-18T16:55:05.274Z,14.90
2022-12-18T16:57:31.535Z,16.80
2022-12-18T17:00:02.973Z,17.35
2022-12-18T17:02:31.311Z,17.60
2022-12-18T17:04:58.712Z,17.85
2022-12-18T17:07:26.164Z,17.00
2022-12-18T17:09:54.181Z,18.67
2022-12-18T17:12:21.106Z,19.27
2022-12-18T17:14:47.352Z,19.67
2022-12-18T17:17:22.325Z,20.40
2022-12-18T17:19:49.856Z,18.95
2022-12-18T17:22:16.054Z,18.80
2022-12-18T17:24:42.150Z,18.52
2022-12-18T17:27:09.003Z,19.83
2022-12-18T17:29:35.114Z,20.00
2022-12-18T17:32:01.252Z,20.60
2022-12-18T17:34:27.877Z,20.88
2022-12-18T17:36:54.348Z,19.23
2022-12-18T17:39:20.984Z,20.33
2022-12-18T17:41:48.181Z,22.80
2022-12-18T17:44:14.530Z,22.83
2022-12-18T17:46:40.951Z,20.90
2022-12-18T17:49:07.097Z,20.70
2022-12-18T17:51:33.230Z,21.98
2022-12-18T17:53:59.442Z,23.40
2022-12-18T17:56:26.074Z,21.48
2022-12-18T17:58:52.264Z,23.30
2022-12-18T18:01:24.487Z,22.42
2022-12-18T18:03:53.514Z,22.65
2022-12-18T18:06:20.059Z,22.65
2022-12-18T18:08:46.223Z,24.60
2022-12-18T18:11:33.892Z,28.15
2022-12-18T18:14:00.872Z,29.80
2022-12-18T18:16:33.515Z,26.10
2022-12-18T18:19:03.095Z,24.10
2022-12-18T18:21:29.853Z,22.75
2022-12-18T18:23:59.724Z,22.70
2022-12-18T18:26:29.347Z,23.30
2022-12-18T18:28:56.116Z,22.08
2022-12-18T18:31:26.779Z,22.60
2022-12-18T18:33:53.058Z,22.33
2022-12-18T18:36:19.241Z,22.55
2022-12-18T18:38:48.381Z,23.10
2022-12-18T18:41:15.057Z,21.77
2022-12-18T18:43:42.009Z,23.48
2022-12-18T18:46:13.002Z,24.00
2022-12-18T18:48:42.381Z,23.02
2022-12-18T18:51:14.684Z,25.58
2022-12-18T18:53:48.576Z,24.85
2022-12-18T18:56:56.632Z,26.27
2022-12-18T18:59:02.758Z,25.45
2022-12-18T19:01:29.064Z,23.67
2022-12-18T19:03:55.463Z,24.10
2022-12-18T19:06:27.090Z,24.23
2022-12-18T19:08:56.078Z,23.00
2022-12-18T19:11:42.261Z,23.27
2022-12-18T19:14:10.740Z,22.33
2022-12-18T19:16:37.366Z,23.45
2022-12-18T19:19:04.551Z,23.92
2022-12-18T19:21:34.189Z,23.55
2022-12-18T19:24:01.701Z,23.08
2022-12-18T19:26:28.761Z,23.85
2022-12-18T19:29:00.096Z,24.63
2022-12-18T19:31:30.383Z,23.73
2022-12-18T19:34:00.059Z,22.92
2022-12-18T19:36:28.924Z,23.90
2022-12-18T19:38:58.285Z,22.83
2022-12-18T19:41:25.512Z,23.20
2022-12-18T19:43:52.835Z,23.52
2022-12-18T19:46:22.140Z,23.60
2022-12-18T19:48:49.151Z,23.65
2022-12-18T19:51:21.276Z,25.00
2022-12-18T19:53:47.879Z,24.88
2022-12-18T19:56:16.460Z,26.17
2022-12-18T19:58:44.115Z,24.38
2022-12-18T20:01:11.430Z,24.17
2022-12-18T20:03:39.166Z,26.80
2022-12-18T20:06:10.216Z,24.30
2022-12-18T20:08:37.043Z,25.00
2022-12-18T20:11:03.147Z,23.98
2022-12-18T20:13:29.495Z,24.52
2022-12-18T20:15:55.671Z,24.10
2022-12-18T20:18:21.892Z,26.83
2022-12-18T20:20:48.826Z,25.38
2022-12-18T20:23:16.778Z,24.45
2022-12-18T20:25:42.906Z,24.23
2022-12-18T20:28:09.083Z,24.65
2022-12-18T20:30:35.214Z,24.52
2022-12-18T20:33:01.338Z,23.85
2022-12-18T20:35:28.816Z,23.63
2022-12-18T20:37:57.943Z,23.48
2022-12-18T20:40:26.348Z,26.15
2022-12-18T20:42:52.548Z,23.75
2022-12-18T20:45:20.257Z,24.13
2022-12-18T20:47:46.394Z,24.77
2022-12-18T20:50:12.682Z,25.15
2022-12-18T20:52:38.864Z,25.27
2022-12-18T20:55:06.436Z,24.23
2022-12-18T20:57:33.067Z,26.13
2022-12-18T20:59:59.284Z,24.67
2022-12-18T21:02:25.779Z,26.65
2022-12-18T21:04:52.075Z,25.88
2022-12-18T21:07:18.202Z,24.65
2022-12-18T21:09:44.327Z,25.67
2022-12-18T21:12:38.895Z,26.30
2022-12-18T21:15:14.273Z,24.55
2022-12-18T21:17:44.575Z,26.17
2022-12-18T21:20:11.888Z,24.83
2022-12-18T21:22:43.861Z,25.35
2022-12-18T21:25:10.101Z,23.23
2022-12-18T21:27:36.247Z,28.70
2022-12-18T21:30:02.533Z,26.42
2022-12-18T21:32:30.936Z,25.08
2022-12-18T21:34:59.680Z,25.60
2022-12-18T21:37:25.824Z,25.65
2022-12-18T21:39:52.013Z,25.08
2022-12-18T21:42:36.951Z,25.95
2022-12-18T21:45:03.135Z,25.08
2022-12-18T21:47:29.300Z,26.55
2022-12-18T21:49:55.451Z,28.17
2022-12-18T21:52:32.059Z,25.77
2022-12-18T21:55:01.883Z,25.33
2022-12-18T21:57:34.443Z,27.20
2022-12-18T22:00:02.070Z,26.13
2022-12-18T22:02:38.231Z,25.25
2022-12-18T22:05:04.759Z,27.00
2022-12-18T22:07:31.236Z,25.70
2022-12-18T22:09:57.361Z,25.23
2022-12-18T22:12:43.311Z,24.77
2022-12-18T22:15:11.956Z,25.30
2022-12-18T22:17:40.001Z,28.08
2022-12-18T22:20:06.874Z,28.17
2022-12-18T22:22:32.977Z,25.10
2022-12-18T22:24:59.091Z,26.70
2022-12-18T22:27:25.209Z,24.95
2022-12-18T22:30:06.592Z,27.13
2022-12-18T22:32:35.088Z,26.10
2022-12-18T22:35:09.184Z,26.83
2022-12-18T22:37:37.104Z,24.92
2022-12-18T22:40:03.790Z,27.85
2022-12-18T22:42:30.857Z,27.15
2022-12-18T22:44:57.021Z,27.20
2022-12-18T22:47:27.872Z,28.20
2022-12-18T22:49:55.819Z,26.95
2022-12-18T22:52:21.953Z,25.25
2022-12-18T22:54:50.461Z,26.90
2022-12-18T22:57:16.559Z,25.80
2022-12-18T22:59:42.767Z,28.45
2022-12-18T23:02:08.988Z,25.88
2022-12-18T23:04:36.942Z,26.75
2022-12-18T23:07:04.907Z,25.55
2022-12-18T23:09:31.112Z,26.77
2022-12-18T23:11:57.234Z,26.98
2022-12-18T23:14:23.414Z,26.50
2022-12-18T23:16:49.531Z,26.90
2022-12-18T23:19:18.334Z,26.58
2022-12-18T23:21:44.437Z,28.77
2022-12-18T23:24:10.683Z,30.42
2022-12-18T23:26:37.312Z,27.48
2022-12-18T23:29:04.237Z,25.67
2022-12-18T23:31:33.329Z,26.60
2022-12-18T23:34:01.519Z,25.70
2022-12-18T23:36:28.603Z,25.77
2022-12-18T23:38:58.800Z,27.02
2022-12-18T23:41:28.179Z,25.95
2022-12-18T23:43:54.776Z,26.55
2022-12-18T23:46:26.158Z,26.88
2022-12-18T23:48:52.870Z,25.63
2022-12-18T23:51:22.834Z,24.23
2022-12-18T23:53:50.003Z,27.25
2022-12-18T23:56:16.518Z,25.35
2022-12-18T23:58:43.293Z,22.02
